sensor_id;sensor_type;location;lat;lon;timestamp;pressure;altitude;pressure_sealevel;temperature;humidity
57094;BME280;42970;50.996;3.706;2023-03-03T00:00:57;76747.66;;;-146.65;100.00
57094;BME280;42970;50.996;3.706;2023-03-03T00:03:23;76759.75;;;-146.65;100.00
57094;BME280;42970;50.996;3.706;2023-03-03T00:05:50;76761.78;;;-146.65;100.00
57094;BME280;42970;50.996;3.706;2023-03-03T00:08:16;76775.91;;;-146.65;100.00
57094;BME280;42970;50.996;3.706;2023-03-03T00:10:41;76775.91;;;-146.65;100.00
57094;BME280;42970;50.996;3.706;2023-03-03T00:13:20;76775.91;;;-146.65;100.00
57094;BME280;42970;50.996;3.706;2023-03-03T00:15:46;76775.91;;;-146.65;100.00
57094;BME280;42970;50.996;3.706;2023-03-03T00:18:24;76771.88;;;-146.65;100.00
57094;BME280;42970;50.996;3.706;2023-03-03T00:20:54;76781.94;;;-146.65;100.00
57094;BME280;42970;50.996;3.706;2023-03-03T00:23:36;76783.97;;;-146.65;100.00
57094;BME280;42970;50.996;3.706;2023-03-03T00:26:04;76779.94;;;-146.65;100.00
57094;BME280;42970;50.996;3.706;2023-03-03T00:28:45;76775.91;;;-146.65;100.00
57094;BME280;42970;50.996;3.706;2023-03-03T00:31:18;76790.03;;;-146.65;100.00
57094;BME280;42970;50.996;3.706;2023-03-03T00:33:49;76796.06;;;-146.65;100.00
57094;BME280;42970;50.996;3.706;2023-03-03T00:36:37;76802.13;;;-146.65;100.00
57094;BME280;42970;50.996;3.706;2023-03-03T00:39:45;76806.16;;;-146.65;100.00
57094;BME280;42970;50.996;3.706;2023-03-03T00:41:52;76808.19;;;-146.65;100.00
57094;BME280;42970;50.996;3.706;2023-03-03T00:44:30;76794.06;;;-146.65;100.00
57094;BME280;42970;50.996;3.706;2023-03-03T00:46:56;76812.22;;;-146.65;100.00
57094;BME280;42970;50.996;3.706;2023-03-03T00:49:23;76800.09;;;-146.65;100.00
57094;BME280;42970;50.996;3.706;2023-03-03T00:51:51;76818.28;;;-146.65;100.00
57094;BME280;42970;50.996;3.706;2023-03-03T00:54:17;76804.16;;;-146.65;100.00
57094;BME280;42970;50.996;3.706;2023-03-03T00:56:42;76812.22;;;-146.65;100.00
57094;BME280;42970;50.996;3.706;2023-03-03T00:59:08;76824.31;;;-146.65;100.00
57094;BME280;42970;50.996;3.706;2023-03-03T01:01:34;76818.28;;;-146.65;100.00
57094;BME280;42970;50.996;3.706;2023-03-03T01:03:59;76830.38;;;-146.65;100.00
57094;BME280;42970;50.996;3.706;2023-03-03T01:06:25;76820.28;;;-146.65;100.00
57094;BME280;42970;50.996;3.706;2023-03-03T01:08:50;76820.28;;;-146.65;100.00
57094;BME280;42970;50.996;3.706;2023-03-03T01:11:19;76832.38;;;-146.65;100.00
57094;BME280;42970;50.996;3.706;2023-03-03T01:13:46;76840.47;;;-146.65;100.00
57094;BME280;42970;50.996;3.706;2023-03-03T01:16:13;76838.44;;;-146.65;100.00
57094;BME280;42970;50.996;3.706;2023-03-03T01:18:38;76832.38;;;-146.65;100.00
57094;BME280;42970;50.996;3.706;2023-03-03T01:21:06;76836.44;;;-146.65;100.00
57094;BME280;42970;50.996;3.706;2023-03-03T01:23:31;76836.44;;;-146.65;100.00
57094;BME280;42970;50.996;3.706;2023-03-03T01:25:57;76842.47;;;-146.65;100.00
57094;BME280;42970;50.996;3.706;2023-03-03T01:28:22;76834.41;;;-146.65;100.00
57094;BME280;42970;50.996;3.706;2023-03-03T01:30:48;76834.41;;;-146.65;100.00
57094;BME280;42970;50.996;3.706;2023-03-03T01:33:13;76824.31;;;-146.65;100.00
57094;BME280;42970;50.996;3.706;2023-03-03T01:35:47;76830.38;;;-146.65;100.00
57094;BME280;42970;50.996;3.706;2023-03-03T01:38:13;76832.38;;;-146.65;100.00
57094;BME280;42970;50.996;3.706;2023-03-03T01:40:39;76832.38;;;-146.65;100.00
57094;BME280;42970;50.996;3.706;2023-03-03T01:43:04;76842.47;;;-146.65;100.00
57094;BME280;42970;50.996;3.706;2023-03-03T01:48:22;76848.53;;;-146.65;100.00
57094;BME280;42970;50.996;3.706;2023-03-03T01:53:16;76842.47;;;-146.65;100.00
57094;BME280;42970;50.996;3.706;2023-03-03T01:55:43;76832.38;;;-146.65;100.00
57094;BME280;42970;50.996;3.706;2023-03-03T01:58:11;76828.34;;;-146.65;100.00
57094;BME280;42970;50.996;3.706;2023-03-03T02:00:40;76828.34;;;-146.65;100.00
57094;BME280;42970;50.996;3.706;2023-03-03T02:03:06;76814.22;;;-146.65;100.00
57094;BME280;42970;50.996;3.706;2023-03-03T02:05:32;76824.31;;;-146.65;100.00
57094;BME280;42970;50.996;3.706;2023-03-03T02:07:57;76820.28;;;-146.65;100.00
57094;BME280;42970;50.996;3.706;2023-03-03T02:10:24;76834.41;;;-146.65;100.00
57094;BME280;42970;50.996;3.706;2023-03-03T02:12:51;76812.22;;;-146.65;100.00
57094;BME280;42970;50.996;3.706;2023-03-03T02:15:18;76836.44;;;-146.65;100.00
57094;BME280;42970;50.996;3.706;2023-03-03T02:17:44;76840.47;;;-146.65;100.00
57094;BME280;42970;50.996;3.706;2023-03-03T02:20:13;76832.38;;;-146.65;100.00
57094;BME280;42970;50.996;3.706;2023-03-03T02:22:45;76846.50;;;-146.65;100.00
57094;BME280;42970;50.996;3.706;2023-03-03T02:25:14;76832.38;;;-146.65;100.00
57094;BME280;42970;50.996;3.706;2023-03-03T02:27:43;76840.47;;;-146.65;100.00
57094;BME280;42970;50.996;3.706;2023-03-03T02:30:17;76816.25;;;-146.65;100.00
57094;BME280;42970;50.996;3.706;2023-03-03T02:35:24;76832.38;;;-146.65;100.00
57094;BME280;42970;50.996;3.706;2023-03-03T02:37:51;76832.38;;;-146.65;100.00
57094;BME280;42970;50.996;3.706;2023-03-03T02:40:17;76842.47;;;-146.65;100.00
57094;BME280;42970;50.996;3.706;2023-03-03T02:42:46;76852.56;;;-146.65;100.00
57094;BME280;42970;50.996;3.706;2023-03-03T02:45:12;76846.50;;;-146.65;100.00
57094;BME280;42970;50.996;3.706;2023-03-03T02:47:37;76848.53;;;-146.65;100.00
57094;BME280;42970;50.996;3.706;2023-03-03T02:50:03;76828.34;;;-146.65;100.00
57094;BME280;42970;50.996;3.706;2023-03-03T02:52:28;76846.50;;;-146.65;100.00
57094;BME280;42970;50.996;3.706;2023-03-03T02:54:54;76844.50;;;-146.65;100.00
57094;BME280;42970;50.996;3.706;2023-03-03T02:57:19;76860.63;;;-146.65;100.00
57094;BME280;42970;50.996;3.706;2023-03-03T02:59:44;76868.72;;;-146.65;100.00
57094;BME280;42970;50.996;3.706;2023-03-03T03:02:10;76864.69;;;-146.65;100.00
57094;BME280;42970;50.996;3.706;2023-03-03T03:04:36;76866.69;;;-146.65;100.00
57094;BME280;42970;50.996;3.706;2023-03-03T03:07:01;76872.75;;;-146.65;100.00
57094;BME280;42970;50.996;3.706;2023-03-03T03:09:27;76876.78;;;-146.65;100.00
57094;BME280;42970;50.996;3.706;2023-03-03T03:11:53;76880.81;;;-146.65;100.00
57094;BME280;42970;50.996;3.706;2023-03-03T03:14:18;76884.84;;;-146.65;100.00
57094;BME280;42970;50.996;3.706;2023-03-03T03:16:46;76890.91;;;-146.65;100.00
57094;BME280;42970;50.996;3.706;2023-03-03T03:19:11;76882.84;;;-146.65;100.00
57094;BME280;42970;50.996;3.706;2023-03-03T03:21:37;76892.91;;;-146.65;100.00
57094;BME280;42970;50.996;3.706;2023-03-03T03:24:02;76901.00;;;-146.65;100.00
57094;BME280;42970;50.996;3.706;2023-03-03T03:26:27;76892.91;;;-146.65;100.00
57094;BME280;42970;50.996;3.706;2023-03-03T03:28:56;76888.88;;;-146.65;100.00
57094;BME280;42970;50.996;3.706;2023-03-03T03:31:24;76894.94;;;-146.65;100.00
57094;BME280;42970;50.996;3.706;2023-03-03T03:33:49;76896.97;;;-146.65;100.00
57094;BME280;42970;50.996;3.706;2023-03-03T03:36:16;76894.94;;;-146.65;100.00
57094;BME280;42970;50.996;3.706;2023-03-03T03:38:42;76892.91;;;-146.65;100.00
57094;BME280;42970;50.996;3.706;2023-03-03T03:41:09;76892.91;;;-146.65;100.00
57094;BME280;42970;50.996;3.706;2023-03-03T03:43:35;76892.91;;;-146.65;100.00
57094;BME280;42970;50.996;3.706;2023-03-03T03:46:00;76892.91;;;-146.65;100.00
57094;BME280;42970;50.996;3.706;2023-03-03T03:48:26;76870.72;;;-146.65;100.00
57094;BME280;42970;50.996;3.706;2023-03-03T03:50:51;76886.88;;;-146.65;100.00
57094;BME280;42970;50.996;3.706;2023-03-03T03:53:20;76896.97;;;-146.65;100.00
57094;BME280;42970;50.996;3.706;2023-03-03T03:55:45;76892.91;;;-146.65;100.00
57094;BME280;42970;50.996;3.706;2023-03-03T03:58:12;76888.88;;;-146.65;100.00
57094;BME280;42970;50.996;3.706;2023-03-03T04:00:39;76880.81;;;-146.65;100.00
57094;BME280;42970;50.996;3.706;2023-03-03T04:03:05;76872.75;;;-146.65;100.00
57094;BME280;42970;50.996;3.706;2023-03-03T04:05:30;76864.69;;;-146.65;100.00
57094;BME280;42970;50.996;3.706;2023-03-03T04:07:55;76852.56;;;-146.65;100.00
57094;BME280;42970;50.996;3.706;2023-03-03T04:10:21;76862.66;;;-146.65;100.00
57094;BME280;42970;50.996;3.706;2023-03-03T04:12:48;76860.63;;;-146.65;100.00
57094;BME280;42970;50.996;3.706;2023-03-03T04:15:20;76852.56;;;-146.65;100.00
57094;BME280;42970;50.996;3.706;2023-03-03T04:17:54;76844.50;;;-146.65;100.00
57094;BME280;42970;50.996;3.706;2023-03-03T04:20:20;76858.63;;;-146.65;100.00
57094;BME280;42970;50.996;3.706;2023-03-03T04:22:45;76848.53;;;-146.65;100.00
57094;BME280;42970;50.996;3.706;2023-03-03T04:25:15;76856.59;;;-146.65;100.00
57094;BME280;42970;50.996;3.706;2023-03-03T04:27:42;76846.50;;;-146.65;100.00
57094;BME280;42970;50.996;3.706;2023-03-03T04:30:07;76856.59;;;-146.65;100.00
57094;BME280;42970;50.996;3.706;2023-03-03T04:32:41;76854.59;;;-146.65;100.00
57094;BME280;42970;50.996;3.706;2023-03-03T04:35:07;76856.59;;;-146.65;100.00
57094;BME280;42970;50.996;3.706;2023-03-03T04:37:32;76840.47;;;-146.65;100.00
57094;BME280;42970;50.996;3.706;2023-03-03T04:39:58;76850.56;;;-146.65;100.00
57094;BME280;42970;50.996;3.706;2023-03-03T04:42:24;76828.34;;;-146.65;100.00
57094;BME280;42970;50.996;3.706;2023-03-03T04:44:53;76836.44;;;-146.65;100.00
57094;BME280;42970;50.996;3.706;2023-03-03T04:47:18;76830.38;;;-146.65;100.00
57094;BME280;42970;50.996;3.706;2023-03-03T04:49:43;76838.44;;;-146.65;100.00
57094;BME280;42970;50.996;3.706;2023-03-03T04:52:08;76854.59;;;-146.65;100.00
57094;BME280;42970;50.996;3.706;2023-03-03T04:54:34;76854.59;;;-146.65;100.00
57094;BME280;42970;50.996;3.706;2023-03-03T04:56:59;76858.63;;;-146.65;100.00
57094;BME280;42970;50.996;3.706;2023-03-03T04:59:25;76870.72;;;-146.65;100.00
57094;BME280;42970;50.996;3.706;2023-03-03T05:01:50;76870.72;;;-146.65;100.00
57094;BME280;42970;50.996;3.706;2023-03-03T05:04:16;76868.72;;;-146.65;100.00
57094;BME280;42970;50.996;3.706;2023-03-03T05:06:41;76901.00;;;-146.65;100.00
57094;BME280;42970;50.996;3.706;2023-03-03T05:09:06;76907.03;;;-146.65;100.00
57094;BME280;42970;50.996;3.706;2023-03-03T05:11:32;76880.81;;;-146.65;100.00
57094;BME280;42970;50.996;3.706;2023-03-03T05:13:57;76860.63;;;-146.65;100.00
57094;BME280;42970;50.996;3.706;2023-03-03T05:16:22;76876.78;;;-146.65;100.00
57094;BME280;42970;50.996;3.706;2023-03-03T05:18:48;76852.56;;;-146.65;100.00
57094;BME280;42970;50.996;3.706;2023-03-03T05:21:13;76862.66;;;-146.65;100.00
57094;BME280;42970;50.996;3.706;2023-03-03T05:23:38;76848.53;;;-146.65;100.00
57094;BME280;42970;50.996;3.706;2023-03-03T05:26:04;76844.50;;;-146.65;100.00
57094;BME280;42970;50.996;3.706;2023-03-03T05:28:40;76844.50;;;-146.65;100.00
57094;BME280;42970;50.996;3.706;2023-03-03T05:31:05;76840.47;;;-146.65;100.00
57094;BME280;42970;50.996;3.706;2023-03-03T05:33:31;76848.53;;;-146.65;100.00
57094;BME280;42970;50.996;3.706;2023-03-03T05:35:56;76856.59;;;-146.65;100.00
57094;BME280;42970;50.996;3.706;2023-03-03T05:38:22;76872.75;;;-146.65;100.00
57094;BME280;42970;50.996;3.706;2023-03-03T05:40:48;76860.63;;;-146.65;100.00
57094;BME280;42970;50.996;3.706;2023-03-03T05:43:13;76878.78;;;-146.65;100.00
57094;BME280;42970;50.996;3.706;2023-03-03T05:45:38;76876.78;;;-146.65;100.00
57094;BME280;42970;50.996;3.706;2023-03-03T05:48:04;76896.97;;;-146.65;100.00
57094;BME280;42970;50.996;3.706;2023-03-03T05:50:29;76903.00;;;-146.65;100.00
57094;BME280;42970;50.996;3.706;2023-03-03T05:52:55;76901.00;;;-146.65;100.00
57094;BME280;42970;50.996;3.706;2023-03-03T05:55:20;76915.13;;;-146.65;100.00
57094;BME280;42970;50.996;3.706;2023-03-03T05:57:46;76921.16;;;-146.65;100.00
57094;BME280;42970;50.996;3.706;2023-03-03T06:00:11;76911.09;;;-146.65;100.00
57094;BME280;42970;50.996;3.706;2023-03-03T06:02:38;76911.09;;;-146.65;100.00
57094;BME280;42970;50.996;3.706;2023-03-03T06:05:03;76925.22;;;-146.65;100.00
57094;BME280;42970;50.996;3.706;2023-03-03T06:07:29;76923.19;;;-146.65;100.00
57094;BME280;42970;50.996;3.706;2023-03-03T06:09:54;76931.25;;;-146.65;100.00
57094;BME280;42970;50.996;3.706;2023-03-03T06:12:20;76941.34;;;-146.65;100.00
57094;BME280;42970;50.996;3.706;2023-03-03T06:14:45;76941.34;;;-146.65;100.00
57094;BME280;42970;50.996;3.706;2023-03-03T06:17:12;76945.38;;;-146.65;100.00
57094;BME280;42970;50.996;3.706;2023-03-03T06:19:40;76953.47;;;-146.65;100.00
57094;BME280;42970;50.996;3.706;2023-03-03T06:22:06;76961.53;;;-146.65;100.00
57094;BME280;42970;50.996;3.706;2023-03-03T06:24:31;76969.59;;;-146.65;100.00
57094;BME280;42970;50.996;3.706;2023-03-03T06:29:56;76983.72;;;-146.65;100.00
57094;BME280;42970;50.996;3.706;2023-03-03T06:32:22;76989.78;;;-146.65;100.00
57094;BME280;42970;50.996;3.706;2023-03-03T06:34:48;77003.91;;;-146.65;100.00
57094;BME280;42970;50.996;3.706;2023-03-03T06:37:13;77026.09;;;-146.65;100.00
57094;BME280;42970;50.996;3.706;2023-03-03T06:39:39;77058.38;;;-146.65;100.00
57094;BME280;42970;50.996;3.706;2023-03-03T06:42:04;77064.44;;;-146.65;100.00
57094;BME280;42970;50.996;3.706;2023-03-03T06:44:31;77066.44;;;-146.65;100.00
57094;BME280;42970;50.996;3.706;2023-03-03T06:46:56;77078.56;;;-146.65;100.00
57094;BME280;42970;50.996;3.706;2023-03-03T06:49:22;77064.44;;;-146.65;100.00
57094;BME280;42970;50.996;3.706;2023-03-03T06:51:48;77086.63;;;-146.65;100.00
57094;BME280;42970;50.996;3.706;2023-03-03T06:54:17;77078.56;;;-146.65;100.00
57094;BME280;42970;50.996;3.706;2023-03-03T06:56:43;77084.63;;;-146.65;100.00
57094;BME280;42970;50.996;3.706;2023-03-03T06:59:10;77100.75;;;-146.65;100.00
57094;BME280;42970;50.996;3.706;2023-03-03T07:01:36;77082.59;;;-146.65;100.00
57094;BME280;42970;50.996;3.706;2023-03-03T07:06:47;77096.72;;;-146.65;100.00
57094;BME280;42970;50.996;3.706;2023-03-03T07:09:33;77090.66;;;-146.65;100.00
57094;BME280;42970;50.996;3.706;2023-03-03T07:17:23;77094.69;;;-146.65;100.00
57094;BME280;42970;50.996;3.706;2023-03-03T07:19:49;77104.78;;;-146.65;100.00
57094;BME280;42970;50.996;3.706;2023-03-03T07:22:19;77106.81;;;-146.65;100.00
57094;BME280;42970;50.996;3.706;2023-03-03T07:24:49;77102.78;;;-146.65;100.00
57094;BME280;42970;50.996;3.706;2023-03-03T07:29:45;77090.66;;;-146.65;100.00
57094;BME280;42970;50.996;3.706;2023-03-03T07:34:43;77098.72;;;-146.65;100.00
57094;BME280;42970;50.996;3.706;2023-03-03T07:37:16;77108.81;;;-146.65;100.00
57094;BME280;42970;50.996;3.706;2023-03-03T07:39:45;77100.75;;;-146.65;100.00
57094;BME280;42970;50.996;3.706;2023-03-03T07:44:46;77076.53;;;-146.65;100.00
57094;BME280;42970;50.996;3.706;2023-03-03T07:49:50;77090.66;;;-146.65;100.00
57094;BME280;42970;50.996;3.706;2023-03-03T07:52:22;77102.78;;;-146.65;100.00
57094;BME280;42970;50.996;3.706;2023-03-03T07:54:47;77094.69;;;-146.65;100.00
57094;BME280;42970;50.996;3.706;2023-03-03T07:57:16;77088.66;;;-146.65;100.00
57094;BME280;42970;50.996;3.706;2023-03-03T07:59:46;77102.78;;;-146.65;100.00
57094;BME280;42970;50.996;3.706;2023-03-03T08:04:45;77082.59;;;-146.65;100.00
57094;BME280;42970;50.996;3.706;2023-03-03T08:07:21;77078.56;;;-146.65;100.00
57094;BME280;42970;50.996;3.706;2023-03-03T08:12:22;77084.63;;;-146.65;100.00
57094;BME280;42970;50.996;3.706;2023-03-03T08:14:49;77082.59;;;-146.65;100.00
57094;BME280;42970;50.996;3.706;2023-03-03T08:17:19;77068.47;;;-146.65;100.00
57094;BME280;42970;50.996;3.706;2023-03-03T08:19:45;77078.56;;;-146.65;100.00
57094;BME280;42970;50.996;3.706;2023-03-03T08:22:14;77076.53;;;-146.65;100.00
57094;BME280;42970;50.996;3.706;2023-03-03T08:24:40;77074.53;;;-146.65;100.00
57094;BME280;42970;50.996;3.706;2023-03-03T08:27:05;77064.44;;;-146.65;100.00
57094;BME280;42970;50.996;3.706;2023-03-03T08:29:30;77066.44;;;-146.65;100.00
57094;BME280;42970;50.996;3.706;2023-03-03T08:31:56;77062.41;;;-146.65;100.00
57094;BME280;42970;50.996;3.706;2023-03-03T08:34:21;77062.41;;;-146.65;100.00
57094;BME280;42970;50.996;3.706;2023-03-03T08:36:46;77064.44;;;-146.65;100.00
57094;BME280;42970;50.996;3.706;2023-03-03T08:39:13;77050.31;;;-146.65;100.00
57094;BME280;42970;50.996;3.706;2023-03-03T08:41:39;77042.25;;;-146.65;100.00
57094;BME280;42970;50.996;3.706;2023-03-03T08:44:07;77036.19;;;-146.65;100.00
57094;BME280;42970;50.996;3.706;2023-03-03T08:46:33;77018.03;;;-146.65;100.00
57094;BME280;42970;50.996;3.706;2023-03-03T08:48:58;77034.16;;;-146.65;100.00
57094;BME280;42970;50.996;3.706;2023-03-03T08:51:23;77052.31;;;-146.65;100.00
57094;BME280;42970;50.996;3.706;2023-03-03T08:53:50;77050.31;;;-146.65;100.00
57094;BME280;42970;50.996;3.706;2023-03-03T08:56:15;77042.25;;;-146.65;100.00
57094;BME280;42970;50.996;3.706;2023-03-03T08:58:41;77042.25;;;-146.65;100.00
57094;BME280;42970;50.996;3.706;2023-03-03T09:01:12;77026.09;;;-146.65;100.00
57094;BME280;42970;50.996;3.706;2023-03-03T09:03:38;77060.41;;;-146.65;100.00
57094;BME280;42970;50.996;3.706;2023-03-03T09:06:03;77030.13;;;-146.65;100.00
57094;BME280;42970;50.996;3.706;2023-03-03T09:08:29;77030.13;;;-146.65;100.00
57094;BME280;42970;50.996;3.706;2023-03-03T09:10:54;77034.16;;;-146.65;100.00
57094;BME280;42970;50.996;3.706;2023-03-03T09:13:19;77024.06;;;-146.65;100.00
57094;BME280;42970;50.996;3.706;2023-03-03T09:15:45;77005.91;;;-146.65;100.00
57094;BME280;42970;50.996;3.706;2023-03-03T09:18:15;77009.94;;;-146.65;100.00
57094;BME280;42970;50.996;3.706;2023-03-03T09:20:42;77034.16;;;-146.65;100.00
57094;BME280;42970;50.996;3.706;2023-03-03T09:25:53;76985.75;;;-146.65;100.00
57094;BME280;42970;50.996;3.706;2023-03-03T09:30:45;76963.53;;;-146.65;100.00
57094;BME280;42970;50.996;3.706;2023-03-03T09:33:38;76991.78;;;-146.65;100.00
57094;BME280;42970;50.996;3.706;2023-03-03T09:36:11;76957.50;;;-146.65;100.00
57094;BME280;42970;50.996;3.706;2023-03-03T09:38:40;76977.66;;;-146.65;100.00
57094;BME280;42970;50.996;3.706;2023-03-03T09:43:41;76979.69;;;-146.65;100.00
57094;BME280;42970;50.996;3.706;2023-03-03T09:46:20;76965.56;;;-146.65;100.00
57094;BME280;42970;50.996;3.706;2023-03-03T09:48:57;76957.50;;;-146.65;100.00
57094;BME280;42970;50.996;3.706;2023-03-03T09:56:37;76929.25;;;-146.65;100.00
57094;BME280;42970;50.996;3.706;2023-03-03T10:14:37;76880.81;;;-146.65;100.00
57094;BME280;42970;50.996;3.706;2023-03-03T10:19:38;76890.91;;;-146.65;100.00
57094;BME280;42970;50.996;3.706;2023-03-03T10:24:58;76866.69;;;-146.65;100.00
57094;BME280;42970;50.996;3.706;2023-03-03T10:29:58;76832.38;;;-146.65;99.44
57094;BME280;42970;50.996;3.706;2023-03-03T10:32:39;76824.31;;;-146.65;99.02
57094;BME280;42970;50.996;3.706;2023-03-03T11:03:23;76713.34;;;-146.65;93.02
57094;BME280;42970;50.996;3.706;2023-03-03T11:05:54;76713.34;;;-146.65;93.12
57094;BME280;42970;50.996;3.706;2023-03-03T11:18:51;76739.56;;;-146.65;93.30
57094;BME280;42970;50.996;3.706;2023-03-03T11:23:51;76695.19;;;-146.65;90.41
57094;BME280;42970;50.996;3.706;2023-03-03T11:26:29;76683.09;;;-146.65;91.01
57094;BME280;42970;50.996;3.706;2023-03-03T11:31:46;76685.09;;;-146.65;89.75
57094;BME280;42970;50.996;3.706;2023-03-03T11:36:51;76731.50;;;-146.65;91.34
57094;BME280;42970;50.996;3.706;2023-03-03T11:39:21;76725.47;;;-146.65;90.93
57094;BME280;42970;50.996;3.706;2023-03-03T11:44:45;76731.50;;;-146.65;90.76
57094;BME280;42970;50.996;3.706;2023-03-03T11:47:21;76670.97;;;-146.65;90.06
57094;BME280;42970;50.996;3.706;2023-03-03T11:52:25;76634.66;;;-146.65;87.84
57094;BME280;42970;50.996;3.706;2023-03-03T12:04:49;76396.59;;;-146.65;79.42
57094;BME280;42970;50.996;3.706;2023-03-03T12:13:16;76295.72;;;-146.65;70.11
57094;BME280;42970;50.996;3.706;2023-03-03T12:15:25;76299.75;;;-146.65;72.17
57094;BME280;42970;50.996;3.706;2023-03-03T12:20:24;76420.81;;;-146.65;77.97
57094;BME280;42970;50.996;3.706;2023-03-03T12:23:09;76521.69;;;-146.65;80.65
57094;BME280;42970;50.996;3.706;2023-03-03T12:25:50;76489.41;;;-146.65;81.27
57094;BME280;42970;50.996;3.706;2023-03-03T12:28:23;76515.63;;;-146.65;81.74
57094;BME280;42970;50.996;3.706;2023-03-03T12:33:51;76303.78;;;-146.65;73.03
57094;BME280;42970;50.996;3.706;2023-03-03T12:41:38;76453.09;;;-146.65;78.10
57094;BME280;42970;50.996;3.706;2023-03-03T12:44:17;76394.56;;;-146.65;79.11
57094;BME280;42970;50.996;3.706;2023-03-03T12:49:12;76491.41;;;-146.65;80.45
57094;BME280;42970;50.996;3.706;2023-03-03T12:56:53;76093.97;;;-146.65;67.34
57094;BME280;42970;50.996;3.706;2023-03-03T12:59:24;76063.72;;;-146.65;64.36
57094;BME280;42970;50.996;3.706;2023-03-03T13:17:31;76269.50;;;-146.65;71.53
57094;BME280;42970;50.996;3.706;2023-03-03T13:20:00;76344.13;;;-146.65;73.43
57094;BME280;42970;50.996;3.706;2023-03-03T13:25:46;76336.06;;;-146.65;73.60
57094;BME280;42970;50.996;3.706;2023-03-03T13:27:44;76392.56;;;-146.65;75.73
57094;BME280;42970;50.996;3.706;2023-03-03T13:30:15;76398.59;;;-146.65;76.03
57094;BME280;42970;50.996;3.706;2023-03-03T13:32:43;76412.72;;;-146.65;75.41
57094;BME280;42970;50.996;3.706;2023-03-03T13:37:44;76350.19;;;-146.65;76.17
57094;BME280;42970;50.996;3.706;2023-03-03T13:40:23;76370.38;;;-146.65;75.40
57094;BME280;42970;50.996;3.706;2023-03-03T13:42:56;76340.09;;;-146.65;74.76
57094;BME280;42970;50.996;3.706;2023-03-03T13:45:48;76350.19;;;-146.65;74.34
57094;BME280;42970;50.996;3.706;2023-03-03T13:50:50;76396.59;;;-146.65;75.14
57094;BME280;42970;50.996;3.706;2023-03-03T13:59:06;76317.91;;;-146.65;73.64
57094;BME280;42970;50.996;3.706;2023-03-03T14:04:11;76311.84;;;-146.65;72.87
57094;BME280;42970;50.996;3.706;2023-03-03T14:06:38;76321.94;;;-146.65;72.77
57094;BME280;42970;50.996;3.706;2023-03-03T14:14:12;76281.59;;;-146.65;72.30
57094;BME280;42970;50.996;3.706;2023-03-03T14:16:46;76285.63;;;-146.65;72.02
57094;BME280;42970;50.996;3.706;2023-03-03T14:24:55;76334.06;;;-146.65;72.64
57094;BME280;42970;50.996;3.706;2023-03-03T14:27:27;76325.97;;;-146.65;72.27
57094;BME280;42970;50.996;3.706;2023-03-03T14:29:57;76340.09;;;-146.65;72.17
57094;BME280;42970;50.996;3.706;2023-03-03T14:32:23;76336.06;;;-146.65;72.04
57094;BME280;42970;50.996;3.706;2023-03-03T14:34:56;76348.19;;;-146.65;71.32
57094;BME280;42970;50.996;3.706;2023-03-03T14:37:26;76344.13;;;-146.65;72.62
57094;BME280;42970;50.996;3.706;2023-03-03T14:40:37;76336.06;;;-146.65;73.01
57094;BME280;42970;50.996;3.706;2023-03-03T14:45:18;76287.66;;;-146.65;71.82
57094;BME280;42970;50.996;3.706;2023-03-03T14:47:45;76291.69;;;-146.65;70.72
57094;BME280;42970;50.996;3.706;2023-03-03T14:50:29;76313.88;;;-146.65;71.82
57094;BME280;42970;50.996;3.706;2023-03-03T14:53:09;76364.31;;;-146.65;72.87
57094;BME280;42970;50.996;3.706;2023-03-03T14:55:36;76372.38;;;-146.65;73.51
57094;BME280;42970;50.996;3.706;2023-03-03T15:00:32;76356.25;;;-146.65;73.46
57094;BME280;42970;50.996;3.706;2023-03-03T15:03:02;76311.84;;;-146.65;72.67
57094;BME280;42970;50.996;3.706;2023-03-03T15:05:31;76303.78;;;-146.65;71.41
57094;BME280;42970;50.996;3.706;2023-03-03T15:07:57;76356.25;;;-146.65;71.80
57094;BME280;42970;50.996;3.706;2023-03-03T15:10:36;76356.25;;;-146.65;72.16
57094;BME280;42970;50.996;3.706;2023-03-03T15:15:38;76315.91;;;-146.65;71.77
57094;BME280;42970;50.996;3.706;2023-03-03T15:18:13;76303.78;;;-146.65;71.08
57094;BME280;42970;50.996;3.706;2023-03-03T15:28:54;76330.00;;;-146.65;70.48
57094;BME280;42970;50.996;3.706;2023-03-03T15:34:03;76362.28;;;-146.65;72.97
57094;BME280;42970;50.996;3.706;2023-03-03T15:39:17;76354.22;;;-146.65;72.05
57094;BME280;42970;50.996;3.706;2023-03-03T15:41:50;76321.94;;;-146.65;71.60
57094;BME280;42970;50.996;3.706;2023-03-03T15:44:30;76352.22;;;-146.65;70.02
57094;BME280;42970;50.996;3.706;2023-03-03T15:57:28;76364.31;;;-146.65;71.80
57094;BME280;42970;50.996;3.706;2023-03-03T16:02:56;76328.00;;;-146.65;68.78
57094;BME280;42970;50.996;3.706;2023-03-03T16:05:24;76295.72;;;-146.65;68.02
57094;BME280;42970;50.996;3.706;2023-03-03T16:10:56;76323.97;;;-146.65;68.10
57094;BME280;42970;50.996;3.706;2023-03-03T16:13:29;76313.88;;;-146.65;68.63
57094;BME280;42970;50.996;3.706;2023-03-03T16:18:50;76317.91;;;-146.65;68.72
57094;BME280;42970;50.996;3.706;2023-03-03T16:21:28;76317.91;;;-146.65;69.16
57094;BME280;42970;50.996;3.706;2023-03-03T16:24:05;76334.06;;;-146.65;68.51
57094;BME280;42970;50.996;3.706;2023-03-03T16:29:21;76332.03;;;-146.65;68.62
57094;BME280;42970;50.996;3.706;2023-03-03T16:39:22;76398.59;;;-146.65;70.10
57094;BME280;42970;50.996;3.706;2023-03-03T16:44:23;76408.69;;;-146.65;70.32
57094;BME280;42970;50.996;3.706;2023-03-03T16:46:58;76424.84;;;-146.65;70.86
57094;BME280;42970;50.996;3.706;2023-03-03T16:52:14;76412.72;;;-146.65;70.51
57094;BME280;42970;50.996;3.706;2023-03-03T17:04:57;76414.75;;;-146.65;71.77